Mae Sariang, Thailand
Current Conditions -  °F | °C
As of 12:00 PM on Sunday 26 Oct 2014 (Local Time) from VTCC Reporting Station
Few Clouds Few Clouds  
Wind Chill: 30°   Ceiling: Unl
Heat Index: 31°   Visibility: 6mi
Dew Point: 19°   Wind: 3mph
Humidity: 51%   Direction: 190°S
Pressure: 30.03"   Gusts: NA
Location:  18.15°N, 97.93°E
Report Text: VTCC 260500Z 19003KT 9999 FEW035 30/19 Q1017 A3003 NOSIG
Loading
Personal Weather Stations






























Interactive Weather Map
Tropical Storm Tracking
New forecast layout! Learn more

10-Day Weather Forecast

Advertisements
Track Severe Weather on mobile